Time;durP1;ratioP1;P1;durP2;ratioP2;P2;SDS_P1;SDS_P2;PMS_P1;PMS_P2;Temp;Humidity;BMP_temperature;BMP_pressure;BME280_temperature;BME280_humidity;BME280_pressure;Samples;Min_cycle;Max_cycle;Signal;HPM_P1;HPM_P2
2022/04/24 00:01:38;;;;;;;11.60;8.45;;;;;;;13.18;55.29;95363.91;6065174;23;20230;-83
2022/04/24 00:04:04;;;;;;;10.85;8.27;;;;;;;13.18;55.25;95358.69;6063372;23;20602;-83
2022/04/24 00:06:31;;;;;;;11.38;8.77;;;;;;;13.21;55.25;95359.91;6089895;23;20232;-81
2022/04/24 00:08:57;;;;;;;14.18;9.77;;;;;;;13.02;55.58;95357.56;6090020;23;20222;-83
2022/04/24 00:11:23;;;;;;;11.73;8.23;;;;;;;12.99;55.84;95347.72;6099591;23;20194;-86
2022/04/24 00:13:48;;;;;;;11.65;8.73;;;;;;;13.10;55.54;95360.19;6097622;23;20335;-86
2022/04/24 00:16:14;;;;;;;10.68;8.02;;;;;;;13.14;55.60;95349.91;6063883;23;20258;-84
2022/04/24 00:18:40;;;;;;;11.70;8.65;;;;;;;12.96;55.74;95345.75;6099083;23;20269;-84
2022/04/24 00:21:05;;;;;;;12.07;8.85;;;;;;;13.03;55.62;95349.44;6123670;23;20254;-85
2022/04/24 00:23:32;;;;;;;12.35;8.57;;;;;;;13.01;55.88;95353.44;6123664;23;20623;-83
2022/04/24 00:25:58;;;;;;;11.43;8.38;;;;;;;13.10;55.64;95349.75;6065221;23;20228;-83
2022/04/24 00:28:23;;;;;;;10.95;8.40;;;;;;;12.96;55.92;95351.72;6088942;23;20077;-85
2022/04/24 00:30:48;;;;;;;10.52;8.02;;;;;;;13.06;55.56;95345.44;6088180;23;20202;-82
2022/04/24 00:33:14;;;;;;;11.60;8.77;;;;;;;12.83;56.20;95335.09;6122602;23;20054;-85
2022/04/24 00:35:39;;;;;;;12.98;8.98;;;;;;;12.89;56.38;95343.56;6062645;23;20698;-83
2022/04/24 00:38:05;;;;;;;11.27;9.38;;;;;;;13.08;55.48;95341.44;6121942;23;20262;-83
2022/04/24 00:40:30;;;;;;;11.85;8.23;;;;;;;13.04;55.30;95337.91;6113228;23;20183;-83
2022/04/24 00:42:56;;;;;;;9.90;8.15;;;;;;;13.09;55.26;95343.00;6098694;23;20645;-84
2022/04/24 00:45:21;;;;;;;10.50;8.13;;;;;;;13.06;55.50;95353.28;6096623;23;20062;-84
2022/04/24 00:47:47;;;;;;;12.65;8.80;;;;;;;13.06;55.48;95348.06;6087819;23;20145;-83
2022/04/24 00:50:12;;;;;;;11.43;8.88;;;;;;;13.06;55.35;95346.22;6098413;23;20175;-84
2022/04/24 00:52:38;;;;;;;11.00;8.40;;;;;;;12.96;55.77;95337.91;6123009;23;20283;-83
2022/04/24 00:55:07;;;;;;;10.45;8.45;;;;;;;12.69;55.90;95348.25;6063714;23;20957;-84
2022/04/24 00:57:33;;;;;;;11.48;8.52;;;;;;;12.98;55.88;95346.19;6098010;23;20591;-83
2022/04/24 00:59:58;;;;;;;11.00;8.70;;;;;;;12.98;55.54;95341.72;6087933;23;20145;-83
2022/04/24 01:02:24;;;;;;;10.43;8.27;;;;;;;12.98;55.22;95348.81;6097442;23;20187;-85
2022/04/24 01:04:50;;;;;;;10.23;8.88;;;;;;;12.97;55.64;95349.88;6088132;23;20239;-84
2022/04/24 01:07:15;;;;;;;10.73;8.50;;;;;;;13.11;55.24;95348.69;6115632;23;20180;-84
2022/04/24 01:09:41;;;;;;;12.07;8.27;;;;;;;12.98;55.36;95340.97;6064088;23;20315;-84
2022/04/24 01:12:13;;;;;;;13.38;8.95;;;;;;;12.97;55.36;95339.44;6087247;23;20252;-83
2022/04/24 01:14:38;;;;;;;11.45;8.18;;;;;;;13.06;55.32;95340.22;6089252;23;20167;-86
2022/04/24 01:17:05;;;;;;;10.88;8.05;;;;;;;12.82;56.12;95343.25;6097711;23;20606;-84
2022/04/24 01:19:31;;;;;;;10.70;7.93;;;;;;;12.97;55.86;95344.66;6122682;23;20729;-84
2022/04/24 01:21:59;;;;;;;11.95;8.25;;;;;;;12.98;55.40;95338.38;6063766;23;20254;-83
2022/04/24 01:24:27;;;;;;;11.30;8.20;;;;;;;12.79;55.77;95333.41;6122418;23;20187;-84
2022/04/24 01:26:52;;;;;;;11.63;8.50;;;;;;;12.80;56.24;95329.69;6065085;23;20152;-83
2022/04/24 01:29:18;;;;;;;11.30;8.13;;;;;;;12.79;55.90;95326.34;6064419;23;20597;-80
2022/04/24 01:31:45;;;;;;;11.20;7.78;;;;;;;12.74;55.80;95326.47;6098260;23;20187;-84
2022/04/24 01:34:14;;;;;;;10.07;8.18;;;;;;;12.88;55.74;95326.34;6097108;23;20579;-83
2022/04/24 01:36:39;;;;;;;12.20;9.18;;;;;;;12.93;55.49;95319.13;6088798;23;20149;-84
2022/04/24 01:39:05;;;;;;;11.88;8.43;;;;;;;12.76;55.63;95316.47;6062712;23;20599;-85
2022/04/24 01:41:31;;;;;;;11.27;8.85;;;;;;;12.85;55.64;95313.88;6062846;23;20166;-84
2022/04/24 01:44:00;;;;;;;10.07;7.93;;;;;;;12.75;55.81;95309.75;6098371;23;20120;-82
2022/04/24 01:46:25;;;;;;;13.20;8.38;;;;;;;12.71;55.93;95314.00;6087530;23;20196;-86
2022/04/24 01:48:51;;;;;;;10.70;8.55;;;;;;;12.69;55.98;95313.56;6064121;23;20524;-82
2022/04/24 01:51:17;;;;;;;11.30;8.82;;;;;;;12.77;55.64;95320.66;6123532;23;20199;-83
2022/04/24 01:53:46;;;;;;;9.98;8.30;;;;;;;12.75;55.90;95312.34;6097174;23;20154;-85
2022/04/24 01:56:12;;;;;;;10.10;7.38;;;;;;;12.89;55.54;95328.66;6088668;23;20073;-84
2022/04/24 01:58:39;;;;;;;11.02;7.97;;;;;;;13.10;54.76;95328.84;6062336;23;20390;-83
2022/04/24 02:01:08;;;;;;;8.90;7.50;;;;;;;13.09;54.95;95329.94;6089586;23;20165;-83
2022/04/24 02:03:40;;;;;;;11.18;8.23;;;;;;;13.05;54.82;95330.84;6072218;23;20218;-82
2022/04/24 02:06:06;;;;;;;11.00;8.02;;;;;;;13.34;54.31;95326.91;6093368;23;20602;-82
2022/04/24 02:08:34;;;;;;;10.93;8.13;;;;;;;13.36;54.00;95345.66;6064015;23;20262;-83
2022/04/24 02:11:00;;;;;;;11.70;8.50;;;;;;;13.25;54.01;95339.94;6125480;23;20154;-84
2022/04/24 02:13:25;;;;;;;9.30;8.13;;;;;;;13.39;53.94;95347.66;6098227;23;20618;-83
2022/04/24 02:15:51;;;;;;;12.75;8.63;;;;;;;13.52;53.59;95354.59;6098359;23;20152;-83
2022/04/24 02:18:16;;;;;;;9.18;7.47;;;;;;;13.56;53.25;95350.28;6063811;23;20066;-83
2022/04/24 02:20:42;;;;;;;9.25;7.10;;;;;;;13.64;53.19;95365.22;6086236;23;20187;-83
2022/04/24 02:23:11;;;;;;;9.63;7.57;;;;;;;13.64;52.90;95378.28;6123729;23;20113;-83
2022/04/24 02:25:37;;;;;;;9.75;7.47;;;;;;;13.75;53.53;95383.97;6067799;23;20309;-83
2022/04/24 02:28:03;;;;;;;9.93;8.65;;;;;;;13.80;53.80;95383.06;6113515;23;20193;-83
2022/04/24 02:30:32;;;;;;;9.60;7.22;;;;;;;13.80;53.96;95377.81;6062268;23;20179;-82
2022/04/24 02:32:59;;;;;;;10.10;7.70;;;;;;;13.81;53.84;95389.81;6121487;23;20144;-83
2022/04/24 02:35:25;;;;;;;8.45;7.53;;;;;;;13.81;54.43;95392.41;6063968;23;20290;-82
2022/04/24 02:37:51;;;;;;;9.98;7.72;;;;;;;13.81;54.38;95400.25;6097518;23;20200;-82
2022/04/24 02:40:21;;;;;;;9.77;7.68;;;;;;;13.80;54.18;95399.50;6098048;23;20250;-82
2022/04/24 02:42:50;;;;;;;9.98;7.60;;;;;;;13.75;54.21;95404.88;6088630;23;20062;-82
2022/04/24 02:45:16;;;;;;;8.98;7.20;;;;;;;13.77;54.02;95399.34;6063313;23;20192;-82
2022/04/24 02:47:41;;;;;;;8.38;6.70;;;;;;;13.74;53.97;95405.19;6063481;23;20485;-82
2022/04/24 02:50:07;;;;;;;8.77;6.95;;;;;;;13.71;54.41;95400.56;6062991;23;20310;-82
2022/04/24 02:52:32;;;;;;;10.68;7.40;;;;;;;13.82;54.01;95397.34;6121019;23;20183;-82
2022/04/24 02:54:58;;;;;;;10.35;7.78;;;;;;;13.91;54.32;95401.81;6063615;23;20270;-82
2022/04/24 02:57:23;;;;;;;9.35;7.57;;;;;;;13.91;54.63;95399.94;6123132;23;20626;-82
2022/04/24 02:59:49;;;;;;;10.15;8.15;;;;;;;13.85;55.19;95416.91;6063274;23;20612;-82
2022/04/24 03:02:18;;;;;;;9.90;7.55;;;;;;;13.73;55.49;95408.91;6123729;23;20145;-83
2022/04/24 03:04:47;;;;;;;9.05;6.70;;;;;;;13.72;56.15;95412.59;6088279;23;20176;-82
2022/04/24 03:07:12;;;;;;;9.98;8.13;;;;;;;13.70;55.54;95406.91;6063616;23;20154;-82
2022/04/24 03:09:38;;;;;;;11.77;8.35;;;;;;;13.65;55.77;95405.97;6122949;23;20706;-82
2022/04/24 03:12:04;;;;;;;8.40;7.10;;;;;;;13.67;55.54;95405.66;6097575;23;20164;-82
2022/04/24 03:14:29;;;;;;;9.50;7.57;;;;;;;13.61;55.67;95409.50;6098483;23;20594;-82
2022/04/24 03:16:55;;;;;;;9.50;7.70;;;;;;;13.50;56.42;95398.56;6063587;23;20077;-82
2022/04/24 03:19:24;;;;;;;10.15;7.72;;;;;;;13.42;57.07;95407.94;6097445;23;20183;-83
2022/04/24 03:21:49;;;;;;;10.38;7.85;;;;;;;13.41;58.04;95411.63;6123893;23;20702;-83
2022/04/24 03:24:15;;;;;;;10.98;9.07;;;;;;;13.33;59.35;95409.00;6063601;23;20171;-83
2022/04/24 03:26:40;;;;;;;9.95;7.82;;;;;;;13.40;58.69;95404.88;6065892;23;20322;-83
2022/04/24 03:29:05;;;;;;;10.40;8.55;;;;;;;13.38;58.67;95414.84;6150200;23;20070;-83
2022/04/24 03:31:31;;;;;;;12.75;9.00;;;;;;;13.36;59.02;95408.41;6098134;23;20316;-83
2022/04/24 03:33:58;;;;;;;11.68;8.77;;;;;;;13.35;59.50;95415.47;6099037;23;20497;-83
2022/04/24 03:36:23;;;;;;;12.02;8.77;;;;;;;13.28;60.30;95415.91;6098819;23;20077;-83
2022/04/24 03:38:48;;;;;;;12.35;9.65;;;;;;;13.25;60.94;95410.50;6088628;23;20351;-84
2022/04/24 03:41:14;;;;;;;11.25;9.68;;;;;;;13.22;60.61;95424.19;6098426;23;20676;-84
2022/04/24 03:43:39;;;;;;;11.23;9.60;;;;;;;13.18;60.42;95418.78;6099106;23;20137;-84
2022/04/24 03:46:05;;;;;;;13.07;9.45;;;;;;;13.13;61.03;95415.56;6063986;23;20193;-84
2022/04/24 03:48:31;;;;;;;12.43;9.43;;;;;;;13.09;61.00;95417.97;6098582;23;20160;-84
2022/04/24 03:50:57;;;;;;;12.57;9.65;;;;;;;13.04;61.07;95418.13;6113053;23;20225;-84
2022/04/24 03:53:22;;;;;;;13.85;10.27;;;;;;;12.99;60.62;95415.66;6088059;23;20785;-85
2022/04/24 03:55:47;;;;;;;11.38;8.80;;;;;;;13.02;60.31;95413.22;6088270;23;20314;-84
2022/04/24 03:58:13;;;;;;;10.93;9.18;;;;;;;12.99;60.41;95423.47;6122908;23;20527;-84
2022/04/24 04:00:38;;;;;;;11.50;9.55;;;;;;;13.04;60.62;95418.13;6088177;23;20496;-83
2022/04/24 04:03:03;;;;;;;10.45;8.13;;;;;;;13.09;60.06;95431.03;6096783;23;20175;-83
2022/04/24 04:05:29;;;;;;;9.63;7.95;;;;;;;13.19;60.10;95432.63;6063269;23;20254;-83
2022/04/24 04:07:55;;;;;;;12.27;8.88;;;;;;;13.18;60.13;95437.09;6087962;23;20576;-82
2022/04/24 04:10:22;;;;;;;10.70;8.75;;;;;;;13.21;60.14;95435.69;6097410;23;20164;-83
2022/04/24 04:12:48;;;;;;;11.35;8.00;;;;;;;13.24;59.88;95440.31;6122409;23;20180;-83
2022/04/24 04:15:14;;;;;;;10.15;8.32;;;;;;;13.34;59.90;95439.31;6087394;23;20157;-82
2022/04/24 04:17:39;;;;;;;10.23;8.75;;;;;;;13.41;60.15;95443.00;6063051;23;20077;-83
2022/04/24 04:20:09;;;;;;;11.48;8.57;;;;;;;13.33;60.27;95442.97;6121362;23;20236;-83
2022/04/24 04:22:44;;;;;;;10.80;8.40;;;;;;;13.16;60.43;95436.63;6063378;23;20187;-82
2022/04/24 04:25:09;;;;;;;13.40;9.02;;;;;;;13.32;60.42;95438.84;6062752;23;20062;-83
2022/04/24 04:27:34;;;;;;;10.80;8.73;;;;;;;13.32;60.75;95444.06;6064644;23;20167;-83
2022/04/24 04:30:00;;;;;;;11.35;8.85;;;;;;;13.28;60.36;95438.63;6087406;23;20526;-83
2022/04/24 04:32:27;;;;;;;12.15;9.30;;;;;;;13.25;60.48;95441.88;6097325;23;20201;-83
2022/04/24 04:34:53;;;;;;;11.30;9.32;;;;;;;13.20;60.71;95445.38;6098137;23;20251;-82
2022/04/24 04:37:19;;;;;;;12.00;10.23;;;;;;;13.14;61.27;95451.03;6088270;23;20378;-83
2022/04/24 04:39:44;;;;;;;12.98;9.82;;;;;;;13.10;61.38;95453.50;6087960;23;20576;-83
2022/04/24 04:42:10;;;;;;;10.98;8.77;;;;;;;13.15;61.20;95450.00;6062364;23;20172;-83
2022/04/24 04:44:35;;;;;;;12.05;9.38;;;;;;;13.20;61.74;95445.38;6062632;23;20251;-83
2022/04/24 04:47:01;;;;;;;12.43;9.77;;;;;;;13.21;61.73;95448.75;6087223;23;20175;-83
2022/04/24 04:49:28;;;;;;;10.88;9.35;;;;;;;13.18;61.78;95458.00;6121822;23;20261;-84
2022/04/24 04:51:53;;;;;;;11.93;8.50;;;;;;;13.13;62.32;95455.50;6061583;23;20081;-84
2022/04/24 04:54:19;;;;;;;11.18;8.85;;;;;;;13.17;62.11;95456.44;6062256;23;20219;-84
2022/04/24 04:56:44;;;;;;;10.93;8.45;;;;;;;13.14;62.43;95462.25;6062771;23;20610;-85
2022/04/24 04:59:10;;;;;;;12.07;9.30;;;;;;;13.11;62.53;95465.50;6096220;23;20376;-85
2022/04/24 05:01:35;;;;;;;12.80;9.55;;;;;;;13.07;63.01;95465.34;6120379;23;20141;-84
2022/04/24 05:04:00;;;;;;;11.35;9.25;;;;;;;13.10;62.77;95463.94;6085956;23;20649;-85
2022/04/24 05:06:26;;;;;;;11.57;9.77;;;;;;;13.07;62.84;95462.72;6093265;23;20258;-84
2022/04/24 05:08:51;;;;;;;12.15;9.77;;;;;;;13.08;62.93;95460.88;6120498;23;20268;-85
2022/04/24 05:11:17;;;;;;;11.52;8.95;;;;;;;13.03;62.74;95451.31;6095611;23;20194;-84
2022/04/24 05:13:42;;;;;;;11.40;9.52;;;;;;;13.05;63.14;95457.00;6085738;23;20676;-84
2022/04/24 05:16:07;;;;;;;11.45;8.93;;;;;;;13.10;63.52;95458.72;6086037;23;20332;-84
2022/04/24 05:18:33;;;;;;;12.00;9.73;;;;;;;13.11;62.98;95465.50;6061330;23;20191;-84
2022/04/24 05:20:58;;;;;;;13.68;9.73;;;;;;;13.14;62.75;95462.25;6096262;23;20258;-84
2022/04/24 05:23:24;;;;;;;13.77;9.95;;;;;;;13.05;63.21;95467.47;6060814;23;20273;-84
2022/04/24 05:25:49;;;;;;;12.75;10.27;;;;;;;13.03;63.61;95461.00;6086225;23;20583;-84
2022/04/24 05:28:15;;;;;;;13.05;9.70;;;;;;;13.07;63.32;95462.72;6097373;23;20598;-84
2022/04/24 05:30:40;;;;;;;13.02;9.85;;;;;;;13.20;63.91;95479.34;6086102;23;20258;-85
2022/04/24 05:33:05;;;;;;;13.35;10.77;;;;;;;13.16;64.03;95469.81;6061575;23;20175;-84
2022/04/24 05:35:31;;;;;;;12.88;9.32;;;;;;;13.13;64.20;95484.25;6097528;23;20586;-85
2022/04/24 05:37:56;;;;;;;13.40;9.45;;;;;;;13.14;64.20;95482.41;6113648;23;20221;-85
2022/04/24 05:40:22;;;;;;;13.80;10.38;;;;;;;13.16;64.07;95488.09;6122950;23;20252;-85
2022/04/24 05:42:53;;;;;;;12.15;9.77;;;;;;;13.24;64.23;95485.50;6062267;23;20598;-85
2022/04/24 05:45:24;;;;;;;12.60;9.68;;;;;;;13.27;64.48;95490.13;6087135;23;20717;-85
2022/04/24 05:47:50;;;;;;;13.77;10.60;;;;;;;13.15;64.03;95492.56;6088120;23;20254;-85
2022/04/24 05:50:16;;;;;;;12.48;9.95;;;;;;;13.27;64.22;95500.59;6096830;23;20047;-85
2022/04/24 05:52:41;;;;;;;13.30;10.05;;;;;;;13.26;64.15;95493.06;6086273;23;20338;-85
2022/04/24 05:55:07;;;;;;;12.63;9.77;;;;;;;13.28;64.37;95501.34;6097032;23;20184;-85
2022/04/24 05:57:34;;;;;;;12.73;10.18;;;;;;;13.28;63.52;95496.91;6121087;23;20257;-84
2022/04/24 06:00:03;;;;;;;12.38;9.80;;;;;;;13.24;63.91;95495.97;6096808;23;20260;-84
2022/04/24 06:02:28;;;;;;;14.35;10.98;;;;;;;13.14;63.82;95496.22;6097082;23;20146;-85
2022/04/24 06:04:54;;;;;;;13.52;10.27;;;;;;;13.06;64.53;95494.38;6062689;23;20181;-85
2022/04/24 06:07:20;;;;;;;12.65;9.75;;;;;;;13.07;64.23;95499.31;6086972;23;20274;-85
2022/04/24 06:09:45;;;;;;;12.25;9.90;;;;;;;13.26;64.24;95498.28;6121569;23;20532;-84
2022/04/24 06:12:11;;;;;;;13.27;9.88;;;;;;;13.21;63.94;95501.81;6087119;23;20151;-84
2022/04/24 06:14:36;;;;;;;12.15;9.50;;;;;;;13.25;64.29;95494.13;6087419;23;20172;-85
2022/04/24 06:17:03;;;;;;;12.30;10.00;;;;;;;13.16;63.75;95493.31;6097431;23;20175;-85
2022/04/24 06:19:29;;;;;;;13.85;10.38;;;;;;;13.11;63.74;95507.31;6061955;23;20171;-85
2022/04/24 06:21:54;;;;;;;12.75;9.80;;;;;;;13.10;63.96;95503.16;6062613;23;20253;-85
2022/04/24 06:24:20;;;;;;;12.77;9.75;;;;;;;13.00;64.44;95500.78;6062061;23;20153;-85
2022/04/24 06:26:45;;;;;;;12.65;10.23;;;;;;;12.99;64.13;95499.25;6086969;23;20590;-85
2022/04/24 06:29:11;;;;;;;15.57;10.82;;;;;;;12.91;64.38;95508.59;6113756;23;20254;-85
2022/04/24 06:31:36;;;;;;;14.02;10.57;;;;;;;12.85;64.89;95507.97;6062134;23;20242;-85
2022/04/24 06:34:02;;;;;;;13.68;10.25;;;;;;;12.83;64.99;95507.47;6097188;23;20641;-85
2022/04/24 06:36:27;;;;;;;14.30;10.50;;;;;;;12.90;64.69;95505.22;6097066;23;20147;-85
2022/04/24 06:38:53;;;;;;;15.32;11.05;;;;;;;12.95;65.20;95503.53;6121136;23;20169;-85
2022/04/24 06:41:18;;;;;;;13.68;10.88;;;;;;;12.85;65.03;95505.34;6096435;23;20188;-85
2022/04/24 06:43:43;;;;;;;14.88;11.75;;;;;;;12.87;64.73;95497.97;6085958;23;20608;-84
2022/04/24 06:46:09;;;;;;;14.15;10.93;;;;;;;12.93;64.43;95507.22;6061700;23;20228;-84
2022/04/24 06:48:35;;;;;;;19.73;12.80;;;;;;;12.77;64.40;95498.22;6122754;23;20255;-84
2022/04/24 06:51:00;;;;;;;11.18;9.15;;;;;;;12.71;63.11;95515.09;6064376;23;20248;-84
2022/04/24 06:53:28;;;;;;;9.57;7.47;;;;;;;12.51;62.57;95506.69;6122380;23;20654;-84
2022/04/24 06:55:53;;;;;;;9.80;8.00;;;;;;;12.56;62.87;95524.06;6089147;23;20336;-83
2022/04/24 06:58:19;;;;;;;11.50;8.20;;;;;;;12.59;63.34;95525.31;6063507;23;20187;-83
2022/04/24 07:00:46;;;;;;;10.30;7.38;;;;;;;12.60;63.70;95524.25;6063572;23;20237;-83
2022/04/24 07:03:16;;;;;;;10.13;7.85;;;;;;;12.54;64.00;95520.97;6098212;23;20332;-83
2022/04/24 07:05:45;;;;;;;18.83;12.65;;;;;;;12.58;64.04;95532.38;6123266;23;20065;-83
2022/04/24 07:08:11;;;;;;;18.83;13.73;;;;;;;12.55;65.11;95528.50;6089746;23;20339;-83
2022/04/24 07:10:37;;;;;;;18.92;12.52;;;;;;;12.53;65.14;95524.66;6097975;23;20250;-83
2022/04/24 07:13:03;;;;;;;12.98;10.10;;;;;;;12.57;64.66;95528.22;6087530;23;20179;-83
2022/04/24 07:15:36;;;;;;;12.27;8.50;;;;;;;12.47;64.62;95534.44;6088039;23;20599;-83
2022/04/24 07:18:02;;;;;;;12.70;8.88;;;;;;;12.61;64.69;95536.22;6122853;23;20223;-82
2022/04/24 07:20:29;;;;;;;11.90;8.15;;;;;;;12.62;64.74;95535.16;6063211;23;20166;-82
2022/04/24 07:23:01;;;;;;;12.48;9.25;;;;;;;12.47;64.94;95534.44;6122175;23;20184;-83
2022/04/24 07:25:28;;;;;;;13.55;9.35;;;;;;;12.52;64.95;95539.53;6123281;23;20089;-83
2022/04/24 07:27:54;;;;;;;11.55;8.68;;;;;;;12.50;64.74;95536.44;6099418;23;20062;-83
2022/04/24 07:30:21;;;;;;;12.88;10.32;;;;;;;12.46;64.76;95535.50;6063481;23;20400;-83
2022/04/24 07:32:51;;;;;;;15.55;11.93;;;;;;;12.38;65.59;95538.06;6097927;23;20296;-84
2022/04/24 07:35:22;;;;;;;15.32;11.95;;;;;;;12.35;65.89;95545.41;6098825;23;20137;-84
2022/04/24 07:37:48;;;;;;;15.70;11.82;;;;;;;12.48;65.12;95541.19;6099086;23;20240;-84
2022/04/24 07:40:15;;;;;;;12.20;9.85;;;;;;;12.60;64.97;95545.13;6064373;23;20268;-84
2022/04/24 07:42:47;;;;;;;13.25;10.32;;;;;;;12.53;64.71;95528.03;6100414;23;20174;-84
2022/04/24 07:45:40;;;;;;;16.63;12.20;;;;;;;12.44;66.12;95542.09;6123683;23;20631;-84
2022/04/24 07:48:07;;;;;;;14.10;10.40;;;;;;;12.62;65.36;95545.59;6109771;23;20533;-83
2022/04/24 07:50:37;;;;;;;13.27;9.65;;;;;;;12.49;65.05;95540.16;6122882;23;20251;-83
2022/04/24 07:53:03;;;;;;;10.25;7.43;;;;;;;12.59;63.17;95544.34;6121784;23;20623;-83
2022/04/24 07:55:29;;;;;;;13.93;10.07;;;;;;;12.54;63.71;95547.84;6122297;23;20176;-83
2022/04/24 07:57:58;;;;;;;15.90;11.05;;;;;;;12.54;64.08;95550.47;6097642;23;20172;-83
2022/04/24 08:00:27;;;;;;;14.13;9.52;;;;;;;12.48;64.58;95551.66;6062433;23;20180;-83
2022/04/24 08:02:56;;;;;;;12.65;10.55;;;;;;;12.54;64.80;95547.06;6111761;23;20220;-82
2022/04/24 08:05:31;;;;;;;12.60;9.73;;;;;;;12.47;64.39;95547.47;6097191;23;20110;-83
2022/04/24 08:08:02;;;;;;;12.20;9.95;;;;;;;12.58;64.53;95555.06;6111723;23;20249;-83
2022/04/24 08:10:29;;;;;;;12.30;9.77;;;;;;;12.55;64.86;95548.63;6121902;23;20183;-83
2022/04/24 08:12:55;;;;;;;12.77;10.10;;;;;;;12.66;65.10;95547.34;6096726;23;20625;-83
2022/04/24 08:15:21;;;;;;;12.65;9.85;;;;;;;12.62;65.70;95545.59;6111638;23;20295;-83
2022/04/24 08:17:46;;;;;;;13.50;10.23;;;;;;;12.63;65.32;95554.97;6087240;23;20140;-83
2022/04/24 08:20:13;;;;;;;13.65;10.75;;;;;;;12.65;64.94;95552.84;6061643;23;20216;-83
2022/04/24 08:22:44;;;;;;;12.13;9.30;;;;;;;12.58;64.53;95542.81;6086899;23;20256;-83
2022/04/24 08:25:11;;;;;;;15.43;10.02;;;;;;;12.68;64.62;95547.00;6062454;23;20653;-83
2022/04/24 08:27:37;;;;;;;13.15;11.32;;;;;;;12.64;64.09;95546.06;6123637;23;20247;-84
2022/04/24 08:30:07;;;;;;;11.88;9.30;;;;;;;12.58;64.30;95552.47;6062551;23;20515;-83
2022/04/24 08:32:33;;;;;;;13.40;10.15;;;;;;;12.72;64.41;95553.19;6121269;23;20175;-83
2022/04/24 08:34:59;;;;;;;9.82;8.15;;;;;;;12.77;64.38;95553.06;6122094;23;20258;-83
2022/04/24 08:37:25;;;;;;;12.00;8.52;;;;;;;12.76;64.91;95548.91;6086990;23;20260;-83
2022/04/24 08:39:51;;;;;;;13.45;9.60;;;;;;;12.80;64.76;95559.53;6097241;23;20141;-83
2022/04/24 08:42:23;;;;;;;10.75;8.75;;;;;;;12.78;64.79;95553.84;6096361;23;20293;-83
2022/04/24 08:44:49;;;;;;;10.63;8.05;;;;;;;12.87;64.63;95559.91;6087902;23;20302;-83
2022/04/24 08:47:15;;;;;;;9.75;7.75;;;;;;;12.86;64.67;95550.50;6086981;23;20243;-84
2022/04/24 08:49:42;;;;;;;9.95;7.55;;;;;;;12.86;64.38;95553.13;6062587;23;20156;-83
2022/04/24 08:52:09;;;;;;;10.75;8.25;;;;;;;12.86;64.66;95574.03;6085992;23;20603;-83
2022/04/24 08:54:34;;;;;;;9.50;7.28;;;;;;;12.90;64.99;95565.31;6096902;23;20196;-83
2022/04/24 08:57:00;;;;;;;9.02;7.40;;;;;;;12.93;64.29;95566.53;6097221;23;20544;-83
2022/04/24 08:59:26;;;;;;;10.82;8.52;;;;;;;12.96;64.50;95573.78;6096801;23;20355;-83
2022/04/24 09:01:51;;;;;;;10.52;8.63;;;;;;;12.94;64.29;95568.09;6061795;23;20127;-83
2022/04/24 09:04:18;;;;;;;12.77;9.55;;;;;;;12.91;64.13;95573.91;6097158;23;20593;-84
2022/04/24 09:06:54;;;;;;;9.70;7.47;;;;;;;12.74;64.35;95577.94;6111654;23;20184;-83
2022/04/24 09:09:19;;;;;;;10.68;8.00;;;;;;;12.95;63.80;95582.66;6087428;23;20256;-84
2022/04/24 09:11:45;;;;;;;13.68;8.02;;;;;;;13.01;64.12;95583.34;6086649;23;20207;-84
2022/04/24 09:14:19;;;;;;;11.60;9.00;;;;;;;13.01;64.64;95583.34;6112676;23;20184;-84
2022/04/24 09:16:47;;;;;;;12.75;10.00;;;;;;;12.99;65.37;95580.22;6089128;23;20708;-84
2022/04/24 09:19:15;;;;;;;12.55;9.30;;;;;;;12.99;65.39;95593.28;6097133;23;20598;-84
2022/04/24 09:21:41;;;;;;;13.05;8.90;;;;;;;13.10;65.54;95581.53;6087153;23;20188;-84
2022/04/24 09:24:06;;;;;;;12.57;8.95;;;;;;;13.16;64.30;95592.63;6062414;23;20169;-84
2022/04/24 09:26:33;;;;;;;12.40;9.30;;;;;;;13.16;64.72;95587.41;6097046;23;20267;-84
2022/04/24 09:28:58;;;;;;;13.70;10.65;;;;;;;13.16;65.02;95592.63;6124171;23;20206;-84
2022/04/24 09:31:30;;;;;;;14.35;10.52;;;;;;;13.05;64.50;95590.25;6086556;23;20187;-84
2022/04/24 09:33:56;;;;;;;17.92;12.48;;;;;;;13.12;64.75;95597.69;6096827;23;20262;-84
2022/04/24 09:36:25;;;;;;;14.38;11.13;;;;;;;13.12;64.69;95595.06;6062423;23;20243;-83
2022/04/24 09:38:51;;;;;;;15.43;11.88;;;;;;;13.14;64.57;95598.16;6096782;23;20239;-83
2022/04/24 09:41:21;;;;;;;14.32;10.32;;;;;;;13.10;64.52;95603.19;6086760;23;20590;-84
2022/04/24 09:43:47;;;;;;;12.73;9.75;;;;;;;13.28;63.80;95601.47;6121659;23;20211;-84
2022/04/24 09:46:12;;;;;;;12.15;8.30;;;;;;;13.32;63.97;95601.66;6062418;23;20224;-84
2022/04/24 09:48:38;;;;;;;11.75;9.45;;;;;;;13.36;64.59;95607.06;6096965;23;20289;-84
2022/04/24 09:51:03;;;;;;;12.88;9.20;;;;;;;13.33;63.34;95608.41;6061734;23;20607;-83
2022/04/24 09:53:29;;;;;;;12.75;9.25;;;;;;;13.39;63.40;95614.31;6061340;23;20259;-83
2022/04/24 09:55:55;;;;;;;12.73;9.52;;;;;;;13.43;63.54;95612.63;6097072;23;20191;-84
2022/04/24 09:58:21;;;;;;;12.80;9.75;;;;;;;13.44;64.50;95603.72;6097026;23;20244;-83
2022/04/24 10:00:47;;;;;;;12.15;9.25;;;;;;;13.53;63.28;95617.59;6097176;23;20246;-83
2022/04/24 10:03:16;;;;;;;12.05;9.35;;;;;;;13.43;63.44;95621.22;6096388;23;20179;-83
2022/04/24 10:05:45;;;;;;;11.60;9.07;;;;;;;13.60;63.25;95617.16;6096810;23;20433;-83
2022/04/24 10:08:11;;;;;;;12.68;9.45;;;;;;;13.58;63.03;95620.06;6087235;23;20084;-83
2022/04/24 10:10:36;;;;;;;12.68;9.77;;;;;;;13.63;63.97;95627.03;6121443;23;20156;-82
2022/04/24 10:13:06;;;;;;;13.02;9.23;;;;;;;13.51;63.32;95616.38;6095787;23;20180;-83
2022/04/24 10:15:33;;;;;;;13.13;9.18;;;;;;;13.67;63.42;95622.72;6087041;23;20757;-82
2022/04/24 10:18:30;;;;;;;10.80;9.00;;;;;;;13.58;62.58;95632.38;6086403;23;20208;-82
2022/04/24 10:21:27;;;;;;;12.45;9.30;;;;;;;13.67;62.56;95633.97;6117555;23;20258;-82
2022/04/24 10:23:52;;;;;;;10.93;8.13;;;;;;;13.96;60.31;95640.53;6097923;23;20649;-82
2022/04/24 10:26:21;;;;;;;11.32;8.95;;;;;;;13.92;61.67;95642.22;6118631;23;20261;-82
2022/04/24 10:28:47;;;;;;;10.57;8.40;;;;;;;13.97;61.39;95644.69;6099541;23;20133;-82
2022/04/24 10:31:13;;;;;;;10.32;8.18;;;;;;;13.93;59.44;95641.16;6122321;23;20262;-83
2022/04/24 10:33:40;;;;;;;11.30;9.18;;;;;;;13.92;60.33;95650.06;6123333;23;20172;-82
2022/04/24 10:36:05;;;;;;;10.18;8.43;;;;;;;13.95;60.18;95659.13;6123109;23;20133;-82
2022/04/24 10:38:32;;;;;;;11.32;9.50;;;;;;;13.88;60.53;95648.34;6145342;23;20176;-82
2022/04/24 10:41:03;;;;;;;10.57;8.02;;;;;;;13.81;59.17;95654.00;6121734;23;20655;-82
2022/04/24 10:43:36;;;;;;;10.57;7.85;;;;;;;13.95;59.13;95659.94;6110779;23;20234;-82
2022/04/24 10:46:02;;;;;;;10.65;9.40;;;;;;;13.97;60.34;95660.41;6108296;23;20255;-82
2022/04/24 10:48:33;;;;;;;12.50;9.38;;;;;;;13.75;61.12;95655.25;6096285;23;20255;-82
2022/04/24 10:50:59;;;;;;;10.73;9.07;;;;;;;13.85;61.07;95658.34;6063991;23;20180;-82
2022/04/24 10:53:25;;;;;;;10.68;8.98;;;;;;;13.94;60.73;95668.06;6122411;23;20199;-82
2022/04/24 10:55:50;;;;;;;10.38;7.75;;;;;;;14.02;60.59;95659.50;6097380;23;20233;-81
2022/04/24 10:58:28;;;;;;;11.95;9.27;;;;;;;13.86;60.39;95666.97;6061747;23;20082;-82
2022/04/24 11:00:53;;;;;;;11.75;8.70;;;;;;;13.99;60.41;95660.84;6122407;23;20556;-81
2022/04/24 11:03:19;;;;;;;12.05;8.82;;;;;;;14.07;60.31;95666.41;6122064;23;20172;-81
2022/04/24 11:05:46;;;;;;;11.88;9.68;;;;;;;14.05;59.84;95662.28;6063116;23;20172;-82
2022/04/24 11:08:20;;;;;;;12.18;9.27;;;;;;;14.09;60.04;95672.13;6087484;23;20581;-82
2022/04/24 11:10:47;;;;;;;11.20;9.38;;;;;;;13.90;59.57;95665.31;6064014;23;20235;-82
2022/04/24 11:13:16;;;;;;;12.50;8.75;;;;;;;13.95;58.93;95664.38;6063208;23;20171;-82
2022/04/24 11:15:47;;;;;;;11.00;9.00;;;;;;;13.99;59.03;95673.19;6112039;23;20740;-81
2022/04/24 11:18:21;;;;;;;12.82;9.70;;;;;;;14.03;60.77;95669.66;6122010;23;20180;-82
2022/04/24 11:20:58;;;;;;;10.75;8.55;;;;;;;14.11;60.28;95677.84;6121120;23;20549;-81
2022/04/24 11:23:28;;;;;;;12.18;8.82;;;;;;;14.03;59.99;95680.13;6148367;23;20442;-81